M I D A S
Marine Information and Data Acquisition System
Tripno 665 of the Zeeleeuw from 2004-03-11 07:14:48 to 2004-03-11 15:54:52
Back to CruiseResearch ActivitiesStationsMapUnderway DataData graphs

EquipmentUnitsComment
TimeDGPSUTC
LatitudeDGPSDM.mWGS84
LongitudeDGPSDM.mWGS84
HeadingGyrodeg 
SOGDGPSknotsSpeed over ground
COGDGPSdegCourse over ground
DepthEcho soundermeters200 kHz
Missing or incorrect values are displayed as -999
Navigation data collected by the RV Zeeleeuw from 2004-03-11 07:14:48 to 2004-03-11 15:54:52
Time Latitude Longitude Heading SOG COG Depth
2004-03-11 07:15:49 51°13.592 2°56.109 126.2   24 6.7
2004-03-11 07:16:49 51°13.592 2°56.109 126.1   38 6.7
2004-03-11 07:17:50 51°13.591 2°56.109 117.5 0.1 223 6.8
2004-03-11 07:18:50 51°13.611 2°56.047 121.1 4.3 299 -999
2004-03-11 07:19:50 51°13.649 2°55.926 112.6 5.4 292 -999
2004-03-11 07:20:50 51°13.667 2°55.786 90.4 4.3 273 -999
2004-03-11 07:21:50 51°13.686 2°55.776 19.6 2.7 6 12.9
2004-03-11 07:22:48 51°13.743 2°55.721 327.7 4.8 324 9.1
2004-03-11 07:23:49 51°13.844 2°55.624 333.9 8.1 331 9.3
2004-03-11 07:24:56 51°13.992 2°55.516 340.6 8.9 337 9.6
2004-03-11 07:25:56 51°14.131 2°55.416 340.3 9.5 335 9.9
2004-03-11 07:26:56 51°14.267 2°55.258 320 10.9 314 9.7
2004-03-11 07:27:56 51°14.395 2°55.016 315.2 12.3 309 9.9
2004-03-11 07:28:56 51°14.478 2°54.769 308.6 9.8 297 10.2
2004-03-11 07:29:55 51°14.562 2°54.545 312 11.4 303 10
2004-03-11 07:30:56 51°14.673 2°54.248 306.4 13.7 299 9.7
2004-03-11 07:31:54 51°14.789 2°53.939 306.2 14.1 300 9.1
2004-03-11 07:32:54 51°14.905 2°53.612 306.5 14.3 300 9.2
2004-03-11 07:33:56 51°15.027 2°53.271 305.6 14.3 299 9.1
2004-03-11 07:34:56 51°15.133 2°52.929 300.5 14.5 294 9.5
2004-03-11 07:35:56 51°15.233 2°52.575 304.1 14.6 296 10.4
2004-03-11 07:36:54 51°15.33 2°52.233 298.4 14.7 291 11
2004-03-11 07:37:56 51°15.402 2°51.847 287.4 14.7 280 11.5
2004-03-11 07:38:56 51°15.407 2°51.456 271.4 14.8 266 11.7
2004-03-11 07:39:56 51°15.386 2°51.064 266.4 14.8 262 11.9
2004-03-11 07:40:54 51°15.343 2°50.689 264.1 14.8 260 12
2004-03-11 07:41:56 51°15.292 2°50.292 262.4 14.9 259 12
2004-03-11 07:42:56 51°15.247 2°49.905 264.2 14.8 260 12
2004-03-11 07:43:56 51°15.204 2°49.517 263.7 14.8 260 12
2004-03-11 07:44:56 51°15.161 2°49.13 263 14.7 259 12
2004-03-11 07:45:56 51°15.117 2°48.744 263.7 15 260 11.9
2004-03-11 07:46:56 51°15.076 2°48.356 264.2 14.9 259 12.1
2004-03-11 07:47:56 51°15.035 2°47.966 263.9 14.8 260 12.1
2004-03-11 07:48:56 51°14.991 2°47.578 263.3 14.9 259 11.1
2004-03-11 07:49:56 51°14.95 2°47.193 263.9 14.7 262 9.3
2004-03-11 07:50:56 51°14.907 2°46.814 262.3 14.5 260 8.3
2004-03-11 07:51:56 51°14.868 2°46.437 265.3 14.4 261 7.9
2004-03-11 07:52:56 51°14.825 2°46.058 261.8 14.5 259 8.4
2004-03-11 07:53:56 51°14.807 2°45.663 270.5 15.2 265 10
2004-03-11 07:54:56 51°14.766 2°45.266 264.9 15.1 262 11.6
2004-03-11 07:55:56 51°14.724 2°44.871 263.9 15.1 260 13
2004-03-11 07:56:56 51°14.682 2°44.477 264.3 15 261 14
2004-03-11 07:57:56 51°14.634 2°44.086 264.3 15.2 259 15.1
2004-03-11 07:58:54 51°14.592 2°43.707 264.6 15 258 15.5
2004-03-11 07:59:56 51°14.544 2°43.299 264.1 15.2 258 16.1
2004-03-11 08:00:56 51°14.495 2°42.903 264.2 15.1 259 16.2
2004-03-11 08:01:56 51°14.447 2°42.507 264.1 15.1 258 16.2
2004-03-11 08:02:56 51°14.406 2°42.111 265.1 15.1 259 16
2004-03-11 08:03:56 51°14.368 2°41.714 265.3 15.3 262 14.3
2004-03-11 08:04:54 51°14.335 2°41.33 267.4 15.1 263 13
2004-03-11 08:05:56 51°14.3 2°40.918 266.5 15.2 264 12.6
2004-03-11 08:06:56 51°14.266 2°40.521 266.3 14.9 264 12.2
2004-03-11 08:07:56 51°14.235 2°40.125 264.9 14.9 261 10.6
2004-03-11 08:08:56 51°14.205 2°39.727 265 15.2 262 12.1
2004-03-11 08:09:56 51°14.172 2°39.334 267.1 15.1 263 12.1
2004-03-11 08:10:56 51°14.139 2°38.943 265.2 14.8 262 11
2004-03-11 08:11:54 51°14.109 2°38.555 267 15.5 263 13.8
2004-03-11 08:12:56 51°14.035 2°38.159 247.2 15 245 16
2004-03-11 08:13:54 51°13.935 2°37.809 248.8 15.2 248 15.6
2004-03-11 08:14:56 51°13.833 2°37.425 248.3 15.2 248 17.6
2004-03-11 08:15:56 51°13.736 2°37.057 248.4 15.1 246 17.4
2004-03-11 08:16:56 51°13.641 2°36.685 248.9 15.1 247 17.4
2004-03-11 08:17:56 51°13.545 2°36.312 248.8 15 248 16.8
2004-03-11 08:18:56 51°13.452 2°35.94 250 15.1 249 16.1
2004-03-11 08:19:54 51°13.354 2°35.587 245.4 14.9 246 16
2004-03-11 08:20:54 51°13.229 2°35.245 237.4 14.8 234 15.7
2004-03-11 08:21:56 51°13.065 2°34.935 224 14.6 224 15.2
2004-03-11 08:22:56 51°12.875 2°34.697 217 14.7 218 14.6
2004-03-11 08:23:56 51°12.686 2°34.465 217.2 14.5 220 11.3
2004-03-11 08:24:56 51°12.518 2°34.28 200.4 9.2 207 13.2
2004-03-11 08:25:56 51°12.428 2°34.253 171.8 4.1 189 14.3
2004-03-11 08:26:56 51°12.374 2°34.236 169.2 2.8 195 14.8
2004-03-11 08:27:56 51°12.336 2°34.212 172 2.4 209 15.3
2004-03-11 08:28:56 51°12.307 2°34.179 179.4 2.1 221 15.5
2004-03-11 08:29:56 51°12.274 2°34.139 192.4 3 214 15.7
2004-03-11 08:30:56 51°12.224 2°34.079 203.6 4 217 15.8
2004-03-11 08:31:56 51°12.173 2°34.01 207.8 4.2 225 15.9
2004-03-11 08:32:56 51°12.126 2°33.931 217.7 4.1 229 15.8
2004-03-11 08:33:56 51°12.087 2°33.839 231.6 4.2 240 16.2
2004-03-11 08:34:56 51°12.055 2°33.742 232.2 4 241 16.4
2004-03-11 08:35:56 51°12.021 2°33.653 228.1 3.9 239 16.7
2004-03-11 08:36:56 51°11.987 2°33.565 226.7 3.9 237 17
2004-03-11 08:37:56 51°11.949 2°33.481 223.4 4 234 17
2004-03-11 08:38:56 51°11.909 2°33.397 222.4 4 233 17.2
2004-03-11 08:39:56 51°11.867 2°33.314 221.6 4 233 17.6
2004-03-11 08:40:56 51°11.824 2°33.232 220.6 4 230 17.4
2004-03-11 08:41:56 51°11.782 2°33.151 219.9 3.9 229 17.4
2004-03-11 08:42:54 51°11.741 2°33.075 219.2 3.9 230 17.8
2004-03-11 08:43:56 51°11.697 2°32.993 219.3 3.9 231 17.7
2004-03-11 08:44:56 51°11.655 2°32.915 217.7 3.8 230 17.7
2004-03-11 08:45:56 51°11.61 2°32.845 209.7 3.8 222 16.6
2004-03-11 08:46:56 51°11.558 2°32.781 203.3 4 218 16.2
2004-03-11 08:47:56 51°11.506 2°32.724 199.7 3.7 214 15.9
2004-03-11 08:48:56 51°11.454 2°32.673 198.3 3.7 212 14.2
2004-03-11 08:49:56 51°11.403 2°32.617 204.8 3.8 217 12.3
2004-03-11 08:50:56 51°11.354 2°32.55 212.4 3.9 222 12.6
2004-03-11 08:51:54 51°11.31 2°32.475 222.4 4 232 12.5
2004-03-11 08:52:56 51°11.269 2°32.388 223.2 4 231 12.8
2004-03-11 08:53:54 51°11.229 2°32.31 227.1 4 232 13
2004-03-11 08:54:56 51°11.2 2°32.208 254 4.1 255 13.4
2004-03-11 08:55:56 51°11.195 2°32.099 281 4 269 15.2
2004-03-11 08:56:56 51°11.202 2°32.005 294.4 3.3 280 16.7
2004-03-11 08:57:56 51°11.213 2°31.926 304.3 2.9 284 17.8
2004-03-11 08:58:56 51°11.246 2°31.854 349.7 4.4 335 18.8
2004-03-11 08:59:56 51°11.291 2°31.909 86.3 4 87 18.7
2004-03-11 09:00:56 51°11.233 2°31.971 157.7 4.2 171 17.8
2004-03-11 09:01:56 51°11.168 2°31.959 178.4 4 191 16.5
2004-03-11 09:02:56 51°11.104 2°31.927 185.6 4 199 15.5
2004-03-11 09:03:56 51°11.042 2°31.887 190.8 4.1 206 15.3
2004-03-11 09:04:56 51°10.983 2°31.84 195.3 4 209 15.2
2004-03-11 09:05:56 51°10.925 2°31.784 200.2 4 211 15.1
2004-03-11 09:06:56 51°10.869 2°31.731 197.4 3.9 211 15.1
2004-03-11 09:07:56 51°10.812 2°31.683 194.9 3.9 209 15.3
2004-03-11 09:08:56 51°10.754 2°31.638 194.5 3.9 206 15.4
2004-03-11 09:09:56 51°10.697 2°31.592 197.3 3.9 207 15.6
2004-03-11 09:10:56 51°10.64 2°31.544 199 3.9 210 15.7
2004-03-11 09:11:56 51°10.585 2°31.495 200.6 3.8 211 15.3
2004-03-11 09:12:56 51°10.529 2°31.445 202.8 3.8 211 14.8
2004-03-11 09:13:56 51°10.476 2°31.385 208.4 3.9 218 14.3
2004-03-11 09:14:54 51°10.426 2°31.326 207.1 3.8 215 14.3
2004-03-11 09:15:56 51°10.373 2°31.263 211.3 3.8 217 13.9
2004-03-11 09:16:56 51°10.326 2°31.191 221.5 3.9 225 13.9
2004-03-11 09:17:56 51°10.283 2°31.111 226.3 4 231 14
2004-03-11 09:18:56 51°10.24 2°31.032 223.2 3.9 227 14.1
2004-03-11 09:19:56 51°10.194 2°30.958 222.1 3.9 224 14.2
2004-03-11 09:20:56 51°10.151 2°30.879 226.7 4 230 14.2
2004-03-11 09:21:56 51°10.11 2°30.793 230.8 4 231 15
2004-03-11 09:22:56 51°10.07 2°30.706 230.4 4.1 235 15.9
2004-03-11 09:23:56 51°10.028 2°30.619 230.9 4.1 233 16.1
2004-03-11 09:24:56 51°9.988 2°30.533 236.4 4.1 239 15.8
2004-03-11 09:25:56 51°9.968 2°30.434 268 3.9 261 16.4
2004-03-11 09:26:56 51°9.965 2°30.33 273.5 4 266 17.6
2004-03-11 09:27:56 51°9.962 2°30.223 276.7 4.1 268 18.6
2004-03-11 09:28:56 51°9.964 2°30.114 286.1 4.1 275 19.3
2004-03-11 09:29:56 51°9.975 2°30.012 292.7 3.6 278 19.8
2004-03-11 09:30:56 51°9.979 2°29.925 284.6 3.2 271 20.2
2004-03-11 09:31:56 51°9.975 2°29.846 274.4 2.9 264 20.2
2004-03-11 09:32:56 51°9.965 2°29.775 265.5 2.6 254 20.4
2004-03-11 09:33:56 51°9.953 2°29.711 259.5 2.5 251 20.6
2004-03-11 09:34:56 51°9.938 2°29.652 254.2 2.4 248 21.2
2004-03-11 09:35:56 51°9.94 2°29.549 311.5 4.5 293 21.3
2004-03-11 09:36:56 51°9.991 2°29.509 24.6 2.8 1 21
2004-03-11 09:37:56 51°10.024 2°29.519 42.5 1.6 20 20.9
2004-03-11 09:38:56 51°10.044 2°29.531 44.4 1.1 12 20.5
2004-03-11 09:39:56 51°10.061 2°29.531 40.8 1 357 20.3
2004-03-11 09:40:56 51°10.075 2°29.521 28.1 1 322 20
2004-03-11 09:41:56 51°10.088 2°29.495 9.4 1.4 306 19.9
2004-03-11 09:42:56 51°10.1 2°29.456 350.1 1.8 290 19.3
2004-03-11 09:43:56 51°10.108 2°29.403 327.9 2.2 277 17.9
2004-03-11 09:44:56 51°10.108 2°29.337 298.8 2.7 263 16.7
2004-03-11 09:45:56 51°10.096 2°29.266 268.2 2.9 245 15.2
2004-03-11 09:46:56 51°10.068 2°29.193 234.1 3.8 232 14.2
2004-03-11 09:47:56 51°10.001 2°29.143 171 4.4 187 15
2004-03-11 09:48:56 51°9.947 2°29.135 150.5 2.7 185 17.1
2004-03-11 09:49:56 51°9.909 2°29.125 137.9 2.1 193 17.8
2004-03-11 09:50:56 51°9.882 2°29.112 121.7 1.6 200 18.7
2004-03-11 09:51:56 51°9.873 2°29.149 69.5 4.1 61 19.3
2004-03-11 09:52:56 51°9.962 2°29.327 58.9 11.5 54 19.6
2004-03-11 09:53:56 51°10.087 2°29.582 57.6 12.3 52 20.3
2004-03-11 09:54:56 51°10.217 2°29.839 54.9 12.5 50 21.1
2004-03-11 09:55:56 51°10.353 2°30.091 55.3 12.6 50 21.2
2004-03-11 09:56:56 51°10.488 2°30.342 55.3 12.5 49 21.1
2004-03-11 09:57:56 51°10.623 2°30.594 55.1 12.5 50 20.5
2004-03-11 09:58:56 51°10.757 2°30.846 54.8 12.4 48 19.2
2004-03-11 09:59:56 51°10.892 2°31.098 55.4 12.5 50 19.7
2004-03-11 10:00:56 51°11.028 2°31.35 55.4 12.6 49 19.6
2004-03-11 10:01:56 51°11.165 2°31.603 55.1 12.6 49 19.3
2004-03-11 10:02:56 51°11.302 2°31.856 55 12.6 49 19
2004-03-11 10:03:56 51°11.438 2°32.109 54.4 12.6 49 19.6
2004-03-11 10:04:56 51°11.573 2°32.364 55.8 12.5 50 19.3
2004-03-11 10:05:56 51°11.71 2°32.616 55.1 12.5 49 18.7
2004-03-11 10:06:56 51°11.846 2°32.868 55.1 12.6 49 18.1
2004-03-11 10:07:56 51°11.982 2°33.12 55.8 12.5 50 17.1
2004-03-11 10:08:56 51°12.117 2°33.372 55.2 12.6 50 16.1
2004-03-11 10:09:55 51°12.247 2°33.627 58.8 12.6 54 14.8
2004-03-11 10:10:56 51°12.371 2°33.903 59.5 12.6 55 14.1
2004-03-11 10:11:56 51°12.492 2°34.175 59.1 12.6 54 12.7
2004-03-11 10:12:56 51°12.614 2°34.449 59.3 12.6 54 12.4
2004-03-11 10:13:56 51°12.736 2°34.724 58.9 12.7 55 10.8
2004-03-11 10:14:56 51°12.857 2°34.999 59.4 12.6 54 9.9
2004-03-11 10:15:56 51°12.982 2°35.269 57.5 12.7 52 10.9
2004-03-11 10:16:55 51°13.105 2°35.535 59.9 12.6 54 13.7
2004-03-11 10:17:56 51°13.223 2°35.817 61.9 12.6 56 13.9
2004-03-11 10:18:56 51°13.339 2°36.092 61.6 12.4 57 14.6
2004-03-11 10:19:56 51°13.455 2°36.364 61.6 12.3 56 14.6
2004-03-11 10:20:56 51°13.572 2°36.634 63 12.5 57 16.4
2004-03-11 10:21:56 51°13.672 2°36.923 67.5 12.5 62 17.1
2004-03-11 10:22:56 51°13.765 2°37.216 69 12.3 64 17.2
2004-03-11 10:23:56 51°13.854 2°37.511 70.9 12.3 67 17
2004-03-11 10:24:56 51°13.931 2°37.808 73.3 12.2 70 15.5
2004-03-11 10:25:56 51°13.988 2°38.113 78.2 12 76 14.6
2004-03-11 10:26:56 51°14.022 2°38.432 86.4 12.3 84 12.7
2004-03-11 10:27:56 51°13.998 2°38.757 107.5 12.7 114 10
2004-03-11 10:28:56 51°13.813 2°38.933 166 14.2 174 12.6
2004-03-11 10:29:56 51°13.576 2°38.856 197.4 14.8 201 13
2004-03-11 10:30:56 51°13.351 2°38.676 210.7 15.6 211 12.6
2004-03-11 10:31:56 51°13.135 2°38.463 211.4 15.3 211 12.5
2004-03-11 10:32:56 51°12.922 2°38.248 214.8 15.2 213 12
2004-03-11 10:33:56 51°12.705 2°38.037 212.9 15.4 213 11.2
2004-03-11 10:34:56 51°12.49 2°37.826 213 15.1 211 11.3
2004-03-11 10:35:56 51°12.276 2°37.611 214 15.3 213 10.8
2004-03-11 10:36:56 51°12.061 2°37.396 214.1 15.4 212 10.7
2004-03-11 10:37:56 51°11.847 2°37.183 214.8 15.3 213 10.7
2004-03-11 10:38:56 51°11.633 2°36.971 214.9 15.3 213 10.9
2004-03-11 10:39:56 51°11.421 2°36.758 214.8 15.5 213 10.6
2004-03-11 10:40:56 51°11.209 2°36.544 214.6 14.7 213 10.6
2004-03-11 10:41:56 51°10.996 2°36.332 214 15.2 211 10.3
2004-03-11 10:42:56 51°10.783 2°36.122 215 15.3 213 9.6
2004-03-11 10:43:56 51°10.598 2°35.962 200.7 9.5 200 9.5
2004-03-11 10:44:55 51°10.506 2°35.862 231.2 5.5 227 9.5
2004-03-11 10:45:56 51°10.46 2°35.765 245.4 4.4 236 9.4
2004-03-11 10:46:56 51°10.415 2°35.67 235.9 4.4 229 9.9
2004-03-11 10:47:56 51°10.37 2°35.586 232.6 4 229 10.1
2004-03-11 10:48:56 51°10.326 2°35.509 227.8 4.1 225 10.1
2004-03-11 10:49:56 51°10.277 2°35.43 225.7 4.3 225 10.3
2004-03-11 10:50:56 51°10.229 2°35.35 230 4.1 229 10.2
2004-03-11 10:51:56 51°10.188 2°35.265 242.6 4 235 10.1
2004-03-11 10:52:56 51°10.151 2°35.177 241 3.9 235 10.1
2004-03-11 10:53:56 51°10.116 2°35.089 245.5 3.9 240 9.9
2004-03-11 10:54:56 51°10.084 2°34.999 248.2 4 241 9.9
2004-03-11 10:55:56 51°10.052 2°34.905 247.5 4.1 242 9.8
2004-03-11 10:56:56 51°10.017 2°34.813 245.8 4.1 239 9.8
2004-03-11 10:57:56 51°9.983 2°34.72 245 4.1 241 9.9
2004-03-11 10:58:56 51°9.948 2°34.631 239.8 4 237 9.7
2004-03-11 10:59:56 51°9.91 2°34.544 238.7 4 236 9.8
2004-03-11 11:00:56 51°9.873 2°34.457 238.4 4 237 9.9
2004-03-11 11:01:56 51°9.836 2°34.37 238.7 4 235 9.8
2004-03-11 11:02:56 51°9.799 2°34.282 238.2 4 237 9.9
2004-03-11 11:03:56 51°9.761 2°34.196 236.5 4 234 10
2004-03-11 11:04:56 51°9.721 2°34.111 233.7 3.9 231 10.3
2004-03-11 11:05:56 51°9.682 2°34.027 235.2 4 234 10.4
2004-03-11 11:06:56 51°9.646 2°33.938 232.5 4 235 10.4
2004-03-11 11:07:56 51°9.606 2°33.853 225 4 233 10.7
2004-03-11 11:08:56 51°9.562 2°33.771 219.9 4.1 229 11
2004-03-11 11:09:56 51°9.517 2°33.695 211.9 4.1 227 11.3
2004-03-11 11:10:56 51°9.468 2°33.627 201.8 3.8 218 11.8
2004-03-11 11:11:54 51°9.419 2°33.569 194.2 3.8 215 12.7
2004-03-11 11:12:56 51°9.365 2°33.515 188.7 3.8 214 13.8
2004-03-11 11:13:56 51°9.316 2°33.449 215.9 4 229 14.5
2004-03-11 11:14:56 51°9.277 2°33.36 234.9 4.3 240 14.8
2004-03-11 11:15:56 51°9.247 2°33.254 252.9 4.5 250 14.8
2004-03-11 11:16:56 51°9.224 2°33.151 256.4 3.9 250 14.3
2004-03-11 11:17:56 51°9.198 2°33.054 245.7 5 241 13.9
2004-03-11 11:18:56 51°9.097 2°32.993 162.7 7.2 173 15.9
2004-03-11 11:19:56 51°9.001 2°33.125 127.9 8.4 137 17.2
2004-03-11 11:20:56 51°8.892 2°33.312 124 10.2 130 17.2
2004-03-11 11:21:56 51°8.781 2°33.516 131.3 10.4 138 16.1
2004-03-11 11:22:56 51°8.682 2°33.728 124.4 9.7 130 14.8
2004-03-11 11:23:56 51°8.591 2°33.819 150.3 5.3 167 15.8
2004-03-11 11:24:56 51°8.515 2°33.819 168.5 4.3 190 16.2
2004-03-11 11:25:56 51°8.448 2°33.79 180.2 4.1 202 16
2004-03-11 11:26:56 51°8.389 2°33.734 202.4 4.3 218 15.9
2004-03-11 11:27:56 51°8.338 2°33.653 224.2 4.4 231 15.9
2004-03-11 11:28:56 51°8.294 2°33.564 226.5 4.2 232 15.8
2004-03-11 11:29:56 51°8.252 2°33.477 229.5 4.2 235 15.7
2004-03-11 11:30:56 51°8.214 2°33.385 235.8 4.1 238 15.6
2004-03-11 11:31:56 51°8.178 2°33.293 236.4 4.1 237 15.5
2004-03-11 11:32:56 51°8.142 2°33.204 234.9 4 238 15.4
2004-03-11 11:33:56 51°8.105 2°33.116 234.4 4 238 15.3
2004-03-11 11:34:56 51°8.07 2°33.027 236.1 4 238 15
2004-03-11 11:35:56 51°8.035 2°32.939 237.3 4 238 14.8
2004-03-11 11:36:56 51°8.001 2°32.849 240.2 4 240 14.7
2004-03-11 11:37:56 51°7.968 2°32.758 242.4 3.9 241 14.8
2004-03-11 11:38:56 51°7.938 2°32.666 246.5 3.9 243 14.2
2004-03-11 11:39:56 51°7.91 2°32.572 251.5 3.9 246 14.2
2004-03-11 11:40:56 51°7.887 2°32.477 257.2 3.9 250 14.7
2004-03-11 11:41:56 51°7.865 2°32.381 254.1 3.9 249 14.6
2004-03-11 11:42:56 51°7.841 2°32.288 250.1 3.8 247 14.6
2004-03-11 11:43:56 51°7.815 2°32.195 245.8 3.8 244 14.3
2004-03-11 11:44:56 51°7.786 2°32.105 242 3.8 243 14
2004-03-11 11:45:56 51°7.757 2°32.016 244 3.8 242 13.6
2004-03-11 11:46:56 51°7.73 2°31.925 250.6 3.8 245 13.6
2004-03-11 11:47:56 51°7.707 2°31.832 257.8 3.8 249 13.8
2004-03-11 11:48:56 51°7.688 2°31.737 264.6 3.7 255 14.2
2004-03-11 11:49:56 51°7.676 2°31.644 278.5 3.5 263 14.7
2004-03-11 11:50:56 51°7.671 2°31.554 285.6 3.4 267 16.4
2004-03-11 11:51:56 51°7.67 2°31.461 287.3 3.5 270 16.8
2004-03-11 11:52:56 51°7.669 2°31.366 285.2 3.5 268 17.7
2004-03-11 11:53:56 51°7.664 2°31.279 274.7 3.2 260 18.6
2004-03-11 11:54:56 51°7.653 2°31.201 267.8 2.9 255 19.1
2004-03-11 11:55:56 51°7.662 2°31.084 313.4 5.4 297 19.3
2004-03-11 11:56:56 51°7.725 2°31.062 42.7 3.9 36 18.9
2004-03-11 11:57:56 51°7.753 2°31.14 73.7 3.1 74 18.8
2004-03-11 11:58:56 51°7.764 2°31.215 78.2 2.9 79 18.9
2004-03-11 11:59:56 51°7.772 2°31.289 80.8 2.8 82 19
2004-03-11 12:00:56 51°7.773 2°31.361 87.7 2.7 93 19
2004-03-11 12:01:56 51°7.772 2°31.433 86.4 2.7 87 19
2004-03-11 12:02:56 51°7.775 2°31.505 84.9 2.7 86 18.7
2004-03-11 12:03:56 51°7.774 2°31.578 90.9 2.8 96 18.8
2004-03-11 12:04:56 51°7.766 2°31.651 94.2 2.8 100 18.1
2004-03-11 12:05:56 51°7.76 2°31.726 89.9 2.9 96 17.7
2004-03-11 12:06:56 51°7.756 2°31.803 92 3 97 16.4
2004-03-11 12:07:56 51°7.749 2°31.883 94.9 3.1 101 15
2004-03-11 12:08:56 51°7.749 2°31.962 76.4 2.9 77 14.2
2004-03-11 12:09:56 51°7.768 2°32.035 69.3 3.1 64 14
2004-03-11 12:10:56 51°7.787 2°32.111 70.7 3.1 68 14.4
2004-03-11 12:11:56 51°7.807 2°32.19 71.5 3.2 70 14.6
2004-03-11 12:12:56 51°7.825 2°32.27 72.4 3.2 71 14.9
2004-03-11 12:13:56 51°7.841 2°32.35 73.2 3.2 72 14.9
2004-03-11 12:14:56 51°7.857 2°32.43 73.4 3.2 72 14.9
2004-03-11 12:15:56 51°7.873 2°32.51 72.9 3.1 71 14.6
2004-03-11 12:16:56 51°7.891 2°32.589 71.8 3.1 70 14.9
2004-03-11 12:17:56 51°7.915 2°32.661 59.3 3.1 52 15
2004-03-11 12:18:56 51°7.952 2°32.719 48.9 3.2 41 15.2
2004-03-11 12:19:56 51°7.993 2°32.774 48.6 3.2 40 15.6
2004-03-11 12:20:56 51°8.031 2°32.833 55.1 3.1 48 15.9
2004-03-11 12:21:56 51°8.066 2°32.898 57.2 3.3 52 16.4
2004-03-11 12:22:56 51°8.099 2°32.967 58.6 3.3 53 16.3
2004-03-11 12:23:56 51°8.131 2°33.038 59.5 3.3 54 16.6
2004-03-11 12:24:56 51°8.162 2°33.11 60.7 3.3 55 16.7
2004-03-11 12:25:56 51°8.194 2°33.181 60.2 3.3 54 16.9
2004-03-11 12:26:56 51°8.226 2°33.251 61 3.2 53 17
2004-03-11 12:27:56 51°8.256 2°33.322 62.4 3.3 57 16.9
2004-03-11 12:28:56 51°8.286 2°33.397 64.6 3.4 60 17
2004-03-11 12:29:56 51°8.311 2°33.478 67.4 3.4 66 17
2004-03-11 12:30:56 51°8.334 2°33.563 69.5 3.5 67 17.1
2004-03-11 12:31:56 51°8.354 2°33.648 72.8 3.4 72 17.1
2004-03-11 12:32:56 51°8.369 2°33.735 77.1 3.4 76 17.1
2004-03-11 12:33:56 51°8.38 2°33.822 81.4 3.3 81 17.1
2004-03-11 12:34:56 51°8.383 2°33.891 86.2 2.2 88 17
2004-03-11 12:35:56 51°8.383 2°33.939 84.5 1.5 86 16.8
2004-03-11 12:36:56 51°8.388 2°33.966 66.4 0.8 56 16.8
2004-03-11 12:37:56 51°8.399 2°33.981 44.9 1.3 26 16.9
2004-03-11 12:38:56 51°8.434 2°33.987 10 2.7 354 17.3
2004-03-11 12:39:56 51°8.481 2°33.966 353.5 2.8 338 17.4
2004-03-11 12:40:56 51°8.519 2°33.94 353.2 2.3 337 17.6
2004-03-11 12:41:56 51°8.552 2°33.921 359.2 2 341 17.5
2004-03-11 12:42:56 51°8.581 2°33.907 1 1.7 346 17.4
2004-03-11 12:43:56 51°8.607 2°33.896 358.5 1.5 345 17.5
2004-03-11 12:44:56 51°8.632 2°33.884 351.1 1.7 339 17
2004-03-11 12:45:56 51°8.66 2°33.859 330.8 2 324 17.1
2004-03-11 12:46:56 51°8.683 2°33.816 305.1 2.2 299 16.7
2004-03-11 12:47:56 51°8.69 2°33.76 275.1 2.2 272 16.8
2004-03-11 12:48:56 51°8.679 2°33.707 246.3 2.1 243 17.2
2004-03-11 12:49:56 51°8.656 2°33.667 219.5 2.1 216 17.3
2004-03-11 12:50:56 51°8.625 2°33.646 196 2.1 193 17
2004-03-11 12:51:56 51°8.59 2°33.648 174.3 2 170 17.5
2004-03-11 12:52:56 51°8.559 2°33.665 156.3 2 153 17.4
2004-03-11 12:53:56 51°8.535 2°33.699 133.4 2 129 17.3
2004-03-11 12:54:56 51°8.522 2°33.747 105.7 2 101 18
2004-03-11 12:55:56 51°8.527 2°33.805 76.9 3.1 70 17.9
2004-03-11 12:56:56 51°8.637 2°33.954 45.8 12.6 43 17.5
2004-03-11 12:57:56 51°8.786 2°34.23 56 14.1 52 17.4
2004-03-11 12:58:56 51°8.924 2°34.529 59.6 14 54 17.1
2004-03-11 12:59:56 51°9.059 2°34.829 59.1 13.9 55 17.9
2004-03-11 13:00:56 51°9.194 2°35.13 58.4 14 54 17.2
2004-03-11 13:01:56 51°9.32 2°35.444 62.7 14 58 17.4
2004-03-11 13:02:56 51°9.44 2°35.763 65.6 14 61 18.1
2004-03-11 13:03:56 51°9.553 2°36.086 66.3 14.1 62 18.2
2004-03-11 13:04:56 51°9.657 2°36.417 68.4 14.1 63 18
2004-03-11 13:05:56 51°9.761 2°36.75 68.9 14.1 64 18.5
2004-03-11 13:06:56 51°9.867 2°37.082 69 14.2 63 18.4
2004-03-11 13:07:56 51°9.974 2°37.415 68.3 14.1 63 18.4
2004-03-11 13:08:56 51°10.083 2°37.748 68.7 14.1 63 18.4
2004-03-11 13:09:56 51°10.191 2°38.082 68.3 14.2 64 17.6
2004-03-11 13:10:56 51°10.296 2°38.42 69.5 14.2 64 17.4
2004-03-11 13:11:56 51°10.401 2°38.756 69.1 14.1 63 17.6
2004-03-11 13:12:56 51°10.507 2°39.092 69.1 14.2 63 17.2
2004-03-11 13:13:56 51°10.61 2°39.43 69.9 14.1 65 16.5
2004-03-11 13:14:56 51°10.711 2°39.768 69.4 14.2 65 16
2004-03-11 13:15:56 51°10.813 2°40.108 69.1 14.2 64 15.4
2004-03-11 13:16:56 51°10.926 2°40.439 64.5 14.3 60 14.9
2004-03-11 13:17:56 51°11.047 2°40.766 64.4 14.4 60 14.4
2004-03-11 13:18:56 51°11.172 2°41.09 61.9 14.3 58 13.8
2004-03-11 13:19:56 51°11.301 2°41.413 61.9 14.5 57 13.7
2004-03-11 13:20:56 51°11.446 2°41.718 56.6 14.5 52 12.8
2004-03-11 13:21:56 51°11.594 2°42.021 54.7 14.5 51 12.2
2004-03-11 13:22:56 51°11.746 2°42.319 54.7 14.5 52 12.1
2004-03-11 13:23:56 51°11.898 2°42.621 55.3 14.6 51 12.3
2004-03-11 13:24:56 51°12.049 2°42.923 55.3 14.6 52 12.2
2004-03-11 13:25:56 51°12.155 2°43.272 71.8 14.6 67 11.2
2004-03-11 13:26:56 51°12.251 2°43.631 71.3 14.7 66 13.2
2004-03-11 13:27:56 51°12.345 2°43.992 73.8 14.7 69 12.6
2004-03-11 13:28:56 51°12.438 2°44.355 72.8 14.9 68 12.2
2004-03-11 13:29:56 51°12.529 2°44.719 73.5 14.8 68 10.9
2004-03-11 13:30:56 51°12.621 2°45.083 72.4 14.8 68 10.4
2004-03-11 13:31:56 51°12.713 2°45.447 72.7 14.8 68 10.6
2004-03-11 13:32:56 51°12.809 2°45.812 71.9 14.9 66 11.5
2004-03-11 13:33:56 51°12.921 2°46.164 67 14.8 63 12
2004-03-11 13:34:56 51°13.042 2°46.508 62.9 14.9 58 12.5
2004-03-11 13:35:56 51°13.179 2°46.835 60.9 14.8 57 12.5
2004-03-11 13:36:56 51°13.314 2°47.162 60.9 14.8 57 12.6
2004-03-11 13:37:56 51°13.448 2°47.49 61.2 14.8 56 12.8
2004-03-11 13:38:56 51°13.589 2°47.814 57.9 14.9 54 12.9
2004-03-11 13:39:56 51°13.735 2°48.132 58 14.9 53 13.2
2004-03-11 13:40:56 51°13.86 2°48.397 53.6 8.8 48 13.3
2004-03-11 13:41:56 51°13.923 2°48.457 357.6 2.7 14 13.6
2004-03-11 13:42:56 51°13.97 2°48.469 352 3.3 6 13.6
2004-03-11 13:43:56 51°14.038 2°48.485 5.6 4.6 13 13.8
2004-03-11 13:44:56 51°14.104 2°48.529 27.8 4.2 30 13.9
2004-03-11 13:45:56 51°14.157 2°48.595 41.8 4 42 14
2004-03-11 13:46:56 51°14.204 2°48.671 50.4 4.1 48 14.3
2004-03-11 13:47:56 51°14.246 2°48.753 57.9 3.9 53 14.1
2004-03-11 13:48:56 51°14.284 2°48.836 57.7 3.9 53 14.2
2004-03-11 13:49:56 51°14.323 2°48.92 59.6 3.9 54 14.1
2004-03-11 13:50:56 51°14.362 2°49.005 61.6 4 56 14.4
2004-03-11 13:51:56 51°14.401 2°49.09 64.9 3.9 54 14.3
2004-03-11 13:52:56 51°14.434 2°49.178 68.9 4 58 14.5
2004-03-11 13:53:56 51°14.469 2°49.27 73.7 4 60 14.5
2004-03-11 13:54:57 51°14.501 2°49.364 76.8 4 65 14.6
2004-03-11 13:55:56 51°14.529 2°49.459 81.2 4 66 14.7
2004-03-11 13:56:56 51°14.555 2°49.558 82.3 4.1 66 14.6
2004-03-11 13:57:56 51°14.584 2°49.657 77.6 4.2 64 14.7
2004-03-11 13:58:56 51°14.615 2°49.754 75.8 4.1 63 14.7
2004-03-11 13:59:56 51°14.647 2°49.849 74.2 4 62 14.8
2004-03-11 14:00:56 51°14.679 2°49.944 73 4 60 14.8
2004-03-11 14:01:56 51°14.714 2°50.039 72.6 4.1 61 15
2004-03-11 14:02:56 51°14.746 2°50.132 72.3 4 60 14.9
2004-03-11 14:03:56 51°14.78 2°50.224 69.8 4.1 60 15.1
2004-03-11 14:04:56 51°14.815 2°50.317 70.8 4.1 59 14.8
2004-03-11 14:05:56 51°14.849 2°50.412 71.8 4.1 59 15
2004-03-11 14:06:56 51°14.882 2°50.508 72.2 4.2 64 15.2
2004-03-11 14:07:56 51°14.915 2°50.605 72.7 4.2 62 15.1
2004-03-11 14:08:56 51°14.946 2°50.703 78.6 4.1 65 15
2004-03-11 14:09:56 51°14.974 2°50.801 82.8 4 66 15
2004-03-11 14:10:56 51°15.001 2°50.9 82.2 4.1 66 15
2004-03-11 14:11:56 51°15.03 2°51.003 79.3 4.3 66 15.2
2004-03-11 14:12:56 51°15.057 2°51.097 87.4 3.6 66 15.2
2004-03-11 14:13:56 51°15.079 2°51.18 92.5 3.2 66 15.2
2004-03-11 14:14:56 51°15.1 2°51.253 96 2.9 65 15.1
2004-03-11 14:15:56 51°15.12 2°51.321 99.2 2.8 64 15
2004-03-11 14:16:56 51°15.141 2°51.384 101.3 2.7 61 15
2004-03-11 14:17:56 51°15.158 2°51.453 112.7 3.7 87 15.1
2004-03-11 14:18:56 51°15.126 2°51.522 195.5 3 165 15
2004-03-11 14:19:56 51°15.104 2°51.455 263.5 4.1 272 14.9
2004-03-11 14:20:56 51°15.135 2°51.364 297.4 3.5 321 15.1
2004-03-11 14:21:56 51°15.181 2°51.332 305.7 2.7 344 15.3
2004-03-11 14:22:56 51°15.217 2°51.318 291.3 1.8 346 15.1
2004-03-11 14:23:56 51°15.238 2°51.308 266.4 0.9 342 15.3
2004-03-11 14:24:56 51°15.249 2°51.303 249.7 0.4 342 15.4
2004-03-11 14:25:56 51°15.252 2°51.304 235.5 0.2 24 15.4
2004-03-11 14:26:56 51°15.253 2°51.31 229.1 0.3 87 15.4
2004-03-11 14:27:56 51°15.254 2°51.317 229.3 0.2 79 15.4
2004-03-11 14:28:56 51°15.253 2°51.326 223.3 0.4 107 15.5
2004-03-11 14:29:56 51°15.25 2°51.339 217.1 0.5 110 15.4
2004-03-11 14:30:56 51°15.246 2°51.357 210.5 0.9 112 15.3
2004-03-11 14:31:56 51°15.233 2°51.348 251.1 2.5 268 15.3
2004-03-11 14:32:56 51°15.264 2°51.307 302.3 2.2 350 15.5
2004-03-11 14:33:56 51°15.304 2°51.31 317.3 2.5 10 15.6
2004-03-11 14:34:56 51°15.342 2°51.324 317.1 2.3 16 15.6
2004-03-11 14:35:56 51°15.38 2°51.338 311.5 2.7   15.7
2004-03-11 14:36:56 51°15.468 2°51.355 10.1 7.5 21 15.7
2004-03-11 14:37:56 51°15.579 2°51.562 69.9 12 63 15.6
2004-03-11 14:38:56 51°15.648 2°51.906 84.9 14.3 77 15.4
2004-03-11 14:39:56 51°15.7 2°52.277 85.1 14.4 77 15.1
2004-03-11 14:40:56 51°15.754 2°52.648 85.6 14.3 78 15
2004-03-11 14:41:56 51°15.805 2°53.019 87.9 14.3 79 14.7
2004-03-11 14:42:56 51°15.835 2°53.392 90.4 14.2 83 14.5
2004-03-11 14:43:56 51°15.87 2°53.762 90.6 14 81 14.2
2004-03-11 14:44:56 51°15.906 2°54.13 90.2 14.1 81 14
2004-03-11 14:45:56 51°15.936 2°54.503 94.6 14.1 85 13.7
2004-03-11 14:46:56 51°15.957 2°54.876 95 14.3 84 13.2
2004-03-11 14:47:56 51°15.973 2°55.252 99.2 14 90 12.8
2004-03-11 14:48:56 51°15.971 2°55.5 103.7 6.9 85 12.8
2004-03-11 14:49:56 51°16.005 2°55.651 72.6 5.5 61 12.6
2004-03-11 14:50:56 51°16.05 2°55.765 69.6 4.7 57 12.7
2004-03-11 14:51:56 51°16.087 2°55.869 78.1 4.3 62 12.6
2004-03-11 14:52:57 51°16.118 2°55.968 85.6 4.1 67 12.6
2004-03-11 14:53:56 51°16.146 2°56.066 81.8 4.2 64 12.6
2004-03-11 14:54:56 51°16.182 2°56.165 72.2 4.3 61 12.6
2004-03-11 14:55:56 51°16.215 2°56.262 80.1 4.1 63 12.7
2004-03-11 14:56:56 51°16.244 2°56.357 81.2 3.8 65 12.7
2004-03-11 14:57:57 51°16.271 2°56.449 82.9 3.8 67 12.6
2004-03-11 14:58:56 51°16.299 2°56.545 80.2 4.2 64 12.8
2004-03-11 14:59:57 51°16.334 2°56.649 72.5 4.5 60 12.6
2004-03-11 15:00:56 51°16.37 2°56.754 73.8 4.7 62 12.7
2004-03-11 15:01:56 51°16.405 2°56.861 77.2 4.4 63 12.7
2004-03-11 15:02:56 51°16.437 2°56.96 77 4 63 12.7
2004-03-11 15:03:56 51°16.469 2°57.051 76 3.9 61 12.7
2004-03-11 15:04:56 51°16.502 2°57.135 72.5 3.7 56 12.7
2004-03-11 15:05:56 51°16.536 2°57.216 71.8 3.7 58 13
2004-03-11 15:06:56 51°16.569 2°57.299 74 3.8 60 12.7
2004-03-11 15:07:56 51°16.602 2°57.39 76.9 4 62 12.7
2004-03-11 15:08:56 51°16.633 2°57.486 81.8 4.1 64 12.7
2004-03-11 15:09:56 51°16.661 2°57.585 86.9 4 67 12.6
2004-03-11 15:10:56 51°16.687 2°57.683 85.7 4 66 12.8
2004-03-11 15:11:56 51°16.716 2°57.78 81.2 4 66 12.6
2004-03-11 15:12:56 51°16.748 2°57.883 79.4 4.6 63 12.6
2004-03-11 15:13:56 51°16.781 2°57.982 78.1 3.9 61 12.5
2004-03-11 15:14:56 51°16.812 2°58.068 76.8 3.6 61 12.5
2004-03-11 15:15:56 51°16.841 2°58.145 76.2 3.2 60 12.6
2004-03-11 15:16:56 51°16.863 2°58.278 108.4 7 93 12.5
2004-03-11 15:17:57 51°16.801 2°58.415 175.5 5.7 159 12.4
2004-03-11 15:18:56 51°16.733 2°58.353 240.9 5.4 236 12.2
2004-03-11 15:19:56 51°16.687 2°58.285 215.9 2.7 200 12.2
2004-03-11 15:20:56 51°16.652 2°58.293 195.8 1.8 159 12.2
2004-03-11 15:21:56 51°16.63 2°58.321 187.7 1.5 131 12.1
2004-03-11 15:22:56 51°16.618 2°58.351 187.9 1.1 117 12
2004-03-11 15:23:56 51°16.612 2°58.377 191.1 0.9 104 11.9
2004-03-11 15:24:56 51°16.596 2°58.387 212.7 1.9 200 11.8
2004-03-11 15:25:57 51°16.582 2°58.332 259.9 1.6 296 11.9
2004-03-11 15:26:56 51°16.597 2°58.305 275.8 1.3 321 12
2004-03-11 15:27:56 51°16.613 2°58.287 265.7 1 327 12.1
2004-03-11 15:28:57 51°16.624 2°58.271 254.9 0.8 313 12.1
2004-03-11 15:29:57 51°16.63 2°58.255 246.8 0.7 289 12.1
2004-03-11 15:30:56 51°16.63 2°58.238 239.9 0.6 246 12.1
2004-03-11 15:31:56 51°16.626 2°58.222 235.2 0.7 241 12.1
2004-03-11 15:32:56 51°16.619 2°58.205 231 0.8 231 12.1
2004-03-11 15:33:56 51°16.609 2°58.191 227.7 0.8 216 12
2004-03-11 15:34:56 51°16.596 2°58.179 224.3 0.9 202 12.1
2004-03-11 15:35:56 51°16.584 2°58.166 223 0.9 214 12
2004-03-11 15:36:56 51°16.564 2°58.142 229.5 2.5 227 11.9
2004-03-11 15:37:56 51°16.487 2°57.965 239.9 11.2 236 11.7
2004-03-11 15:38:57 51°16.388 2°57.676 243.9 12.4 242 11.8
2004-03-11 15:39:56 51°16.29 2°57.387 243.3 12.5 240 11.8
2004-03-11 15:40:56 51°16.189 2°57.095 242.5 12.6 239 11.4
2004-03-11 15:41:56 51°16.082 2°56.809 241.6 12.5 238 11.4
2004-03-11 15:42:56 51°15.978 2°56.52 242.9 12.5 240 11.2
2004-03-11 15:43:56 51°15.85 2°56.261 227.9 12.5 226 11.1
2004-03-11 15:44:56 51°15.695 2°56.048 224.7 12.2 220 10.8
2004-03-11 15:45:56 51°15.54 2°55.849 223.5 11.8 217 10.5
2004-03-11 15:46:56 51°15.39 2°55.661 224.1 11.5 219 10.6
2004-03-11 15:47:57 51°15.257 2°55.442 231.9 11.4 226 10.8
2004-03-11 15:48:57 51°15.127 2°55.22 231.5 11.6 226 11.2
2004-03-11 15:49:56 51°14.966 2°55.062 211.2 11.6 201 11.7
2004-03-11 15:50:57 51°14.784 2°54.926 210.7 12.1 205 11.9
2004-03-11 15:51:57 51°14.615 2°54.859 186.5 8.1 172 12.5
2004-03-11 15:52:56 51°14.494 2°54.929 165.4 8.1 152 13
2004-03-11 15:53:56 51°14.385 2°55.032 157.9 6.7 149 13.8